sensor_id;sensor_type;location;lat;lon;timestamp;temperature;humidity
36924;DHT22;22841;50.252;18.688;2023-05-27T00:00:17;11.80;99.90
36924;DHT22;22841;50.252;18.688;2023-05-27T00:02:43;11.80;99.90
36924;DHT22;22841;50.252;18.688;2023-05-27T00:05:10;11.80;99.90
36924;DHT22;22841;50.252;18.688;2023-05-27T00:07:36;11.70;99.90
36924;DHT22;22841;50.252;18.688;2023-05-27T00:10:02;11.70;99.90
36924;DHT22;22841;50.252;18.688;2023-05-27T00:12:28;11.70;99.90
36924;DHT22;22841;50.252;18.688;2023-05-27T00:14:54;11.70;99.90
36924;DHT22;22841;50.252;18.688;2023-05-27T00:17:21;11.60;99.90
36924;DHT22;22841;50.252;18.688;2023-05-27T00:19:47;11.60;99.90
36924;DHT22;22841;50.252;18.688;2023-05-27T00:22:16;11.60;99.90
36924;DHT22;22841;50.252;18.688;2023-05-27T00:24:42;11.60;99.90
36924;DHT22;22841;50.252;18.688;2023-05-27T00:27:09;11.50;99.90
36924;DHT22;22841;50.252;18.688;2023-05-27T00:29:36;11.50;99.90
36924;DHT22;22841;50.252;18.688;2023-05-27T00:32:03;11.50;99.90
36924;DHT22;22841;50.252;18.688;2023-05-27T00:34:33;11.50;99.90
36924;DHT22;22841;50.252;18.688;2023-05-27T00:37:00;11.50;99.90
36924;DHT22;22841;50.252;18.688;2023-05-27T00:39:26;11.30;99.90
36924;DHT22;22841;50.252;18.688;2023-05-27T00:41:52;11.20;99.90
36924;DHT22;22841;50.252;18.688;2023-05-27T00:44:18;11.10;99.90
36924;DHT22;22841;50.252;18.688;2023-05-27T00:46:45;11.00;99.90
36924;DHT22;22841;50.252;18.688;2023-05-27T00:49:13;10.90;99.90
36924;DHT22;22841;50.252;18.688;2023-05-27T00:51:39;11.00;99.90
36924;DHT22;22841;50.252;18.688;2023-05-27T00:54:07;11.00;99.90
36924;DHT22;22841;50.252;18.688;2023-05-27T00:56:33;11.10;99.90
36924;DHT22;22841;50.252;18.688;2023-05-27T00:59:00;11.00;99.90
36924;DHT22;22841;50.252;18.688;2023-05-27T01:01:26;11.00;99.90
36924;DHT22;22841;50.252;18.688;2023-05-27T01:03:53;11.00;99.90
36924;DHT22;22841;50.252;18.688;2023-05-27T01:06:39;10.90;99.90
36924;DHT22;22841;50.252;18.688;2023-05-27T01:09:23;11.00;99.90
36924;DHT22;22841;50.252;18.688;2023-05-27T01:11:53;10.80;99.90
36924;DHT22;22841;50.252;18.688;2023-05-27T01:14:23;10.80;99.90
36924;DHT22;22841;50.252;18.688;2023-05-27T01:16:51;10.80;99.90
36924;DHT22;22841;50.252;18.688;2023-05-27T01:19:30;10.90;99.90
36924;DHT22;22841;50.252;18.688;2023-05-27T01:22:00;10.90;99.90
36924;DHT22;22841;50.252;18.688;2023-05-27T01:24:27;10.90;99.90
36924;DHT22;22841;50.252;18.688;2023-05-27T01:26:54;10.90;99.90
36924;DHT22;22841;50.252;18.688;2023-05-27T01:29:21;10.80;99.90
36924;DHT22;22841;50.252;18.688;2023-05-27T01:32:17;10.80;99.90
36924;DHT22;22841;50.252;18.688;2023-05-27T01:37:19;10.90;99.90
36924;DHT22;22841;50.252;18.688;2023-05-27T01:39:49;10.90;99.90
36924;DHT22;22841;50.252;18.688;2023-05-27T01:42:16;10.90;99.90
36924;DHT22;22841;50.252;18.688;2023-05-27T01:44:42;10.80;99.90
36924;DHT22;22841;50.252;18.688;2023-05-27T01:47:09;10.90;99.90
36924;DHT22;22841;50.252;18.688;2023-05-27T01:49:35;10.90;99.90
36924;DHT22;22841;50.252;18.688;2023-05-27T01:52:01;10.70;99.90
36924;DHT22;22841;50.252;18.688;2023-05-27T01:54:28;10.80;99.90
36924;DHT22;22841;50.252;18.688;2023-05-27T01:56:54;10.70;99.90
36924;DHT22;22841;50.252;18.688;2023-05-27T01:59:20;10.70;99.90
36924;DHT22;22841;50.252;18.688;2023-05-27T02:01:46;10.70;99.90
36924;DHT22;22841;50.252;18.688;2023-05-27T02:04:12;10.80;99.90
36924;DHT22;22841;50.252;18.688;2023-05-27T02:06:38;10.80;99.90
36924;DHT22;22841;50.252;18.688;2023-05-27T02:09:04;10.70;99.90
36924;DHT22;22841;50.252;18.688;2023-05-27T02:11:30;10.70;99.90
36924;DHT22;22841;50.252;18.688;2023-05-27T02:13:57;10.60;99.90
36924;DHT22;22841;50.252;18.688;2023-05-27T02:16:23;10.60;99.90
36924;DHT22;22841;50.252;18.688;2023-05-27T02:18:49;10.60;99.90
36924;DHT22;22841;50.252;18.688;2023-05-27T02:21:15;10.50;99.90
36924;DHT22;22841;50.252;18.688;2023-05-27T02:23:41;10.50;99.90
36924;DHT22;22841;50.252;18.688;2023-05-27T02:26:07;10.50;99.90
36924;DHT22;22841;50.252;18.688;2023-05-27T02:28:33;10.50;99.90
36924;DHT22;22841;50.252;18.688;2023-05-27T02:31:00;10.40;99.90
36924;DHT22;22841;50.252;18.688;2023-05-27T02:33:26;10.40;99.90
36924;DHT22;22841;50.252;18.688;2023-05-27T02:35:52;10.50;99.90
36924;DHT22;22841;50.252;18.688;2023-05-27T02:38:18;10.50;99.90
36924;DHT22;22841;50.252;18.688;2023-05-27T02:40:44;10.50;99.90
36924;DHT22;22841;50.252;18.688;2023-05-27T02:43:10;10.40;99.90
36924;DHT22;22841;50.252;18.688;2023-05-27T02:45:36;10.40;99.90
36924;DHT22;22841;50.252;18.688;2023-05-27T02:48:03;10.40;99.90
36924;DHT22;22841;50.252;18.688;2023-05-27T02:50:29;10.40;99.90
36924;DHT22;22841;50.252;18.688;2023-05-27T02:52:55;10.30;99.90
36924;DHT22;22841;50.252;18.688;2023-05-27T02:55:21;10.40;99.90
36924;DHT22;22841;50.252;18.688;2023-05-27T02:57:47;10.30;99.90
36924;DHT22;22841;50.252;18.688;2023-05-27T03:00:14;10.30;99.90
36924;DHT22;22841;50.252;18.688;2023-05-27T03:02:40;10.40;99.90
36924;DHT22;22841;50.252;18.688;2023-05-27T03:05:06;10.20;99.90
36924;DHT22;22841;50.252;18.688;2023-05-27T03:07:32;10.30;99.90
36924;DHT22;22841;50.252;18.688;2023-05-27T03:09:59;10.20;99.90
36924;DHT22;22841;50.252;18.688;2023-05-27T03:12:25;10.10;99.90
36924;DHT22;22841;50.252;18.688;2023-05-27T03:14:51;10.10;99.90
36924;DHT22;22841;50.252;18.688;2023-05-27T03:17:19;10.10;99.90
36924;DHT22;22841;50.252;18.688;2023-05-27T03:19:45;10.10;99.90
36924;DHT22;22841;50.252;18.688;2023-05-27T03:22:12;10.10;99.90
36924;DHT22;22841;50.252;18.688;2023-05-27T03:24:38;10.10;99.90
36924;DHT22;22841;50.252;18.688;2023-05-27T03:27:04;10.20;99.90
36924;DHT22;22841;50.252;18.688;2023-05-27T03:29:31;10.20;99.90
36924;DHT22;22841;50.252;18.688;2023-05-27T03:31:58;10.10;99.90
36924;DHT22;22841;50.252;18.688;2023-05-27T03:34:24;10.20;99.90
36924;DHT22;22841;50.252;18.688;2023-05-27T03:36:50;10.30;99.90
36924;DHT22;22841;50.252;18.688;2023-05-27T03:39:17;10.30;99.90
36924;DHT22;22841;50.252;18.688;2023-05-27T03:41:43;10.30;99.90
36924;DHT22;22841;50.252;18.688;2023-05-27T03:44:09;10.10;99.90
36924;DHT22;22841;50.252;18.688;2023-05-27T03:46:36;10.10;99.90
36924;DHT22;22841;50.252;18.688;2023-05-27T03:49:02;10.00;99.90
36924;DHT22;22841;50.252;18.688;2023-05-27T03:51:28;10.10;99.90
36924;DHT22;22841;50.252;18.688;2023-05-27T03:53:54;10.00;99.90
36924;DHT22;22841;50.252;18.688;2023-05-27T03:56:20;10.00;99.90
36924;DHT22;22841;50.252;18.688;2023-05-27T03:58:49;10.00;99.90
36924;DHT22;22841;50.252;18.688;2023-05-27T04:01:15;10.00;99.90
36924;DHT22;22841;50.252;18.688;2023-05-27T04:03:42;10.00;99.90
36924;DHT22;22841;50.252;18.688;2023-05-27T04:06:09;10.00;99.90
36924;DHT22;22841;50.252;18.688;2023-05-27T04:08:35;10.10;99.90
36924;DHT22;22841;50.252;18.688;2023-05-27T04:11:03;10.20;99.90
36924;DHT22;22841;50.252;18.688;2023-05-27T04:13:29;10.10;99.90
36924;DHT22;22841;50.252;18.688;2023-05-27T04:15:56;10.10;99.90
36924;DHT22;22841;50.252;18.688;2023-05-27T04:18:23;10.00;99.90
36924;DHT22;22841;50.252;18.688;2023-05-27T04:20:49;10.00;99.90
36924;DHT22;22841;50.252;18.688;2023-05-27T04:23:16;10.10;99.90
36924;DHT22;22841;50.252;18.688;2023-05-27T04:25:42;10.10;99.90
36924;DHT22;22841;50.252;18.688;2023-05-27T04:28:09;10.10;99.90
36924;DHT22;22841;50.252;18.688;2023-05-27T04:30:35;10.10;99.90
36924;DHT22;22841;50.252;18.688;2023-05-27T04:33:04;10.20;99.90
36924;DHT22;22841;50.252;18.688;2023-05-27T04:35:31;10.10;99.90
36924;DHT22;22841;50.252;18.688;2023-05-27T04:37:58;10.10;99.90
36924;DHT22;22841;50.252;18.688;2023-05-27T04:40:29;10.10;99.90
36924;DHT22;22841;50.252;18.688;2023-05-27T04:42:55;10.20;99.90
36924;DHT22;22841;50.252;18.688;2023-05-27T04:45:22;10.20;99.90
36924;DHT22;22841;50.252;18.688;2023-05-27T04:47:48;10.20;99.90
36924;DHT22;22841;50.252;18.688;2023-05-27T04:50:14;10.20;99.90
36924;DHT22;22841;50.252;18.688;2023-05-27T04:52:40;10.30;99.90
36924;DHT22;22841;50.252;18.688;2023-05-27T04:55:09;10.30;99.90
36924;DHT22;22841;50.252;18.688;2023-05-27T04:57:35;10.30;99.90
36924;DHT22;22841;50.252;18.688;2023-05-27T05:00:05;10.30;99.90
36924;DHT22;22841;50.252;18.688;2023-05-27T05:02:34;10.40;99.90
36924;DHT22;22841;50.252;18.688;2023-05-27T05:05:05;10.40;99.90
36924;DHT22;22841;50.252;18.688;2023-05-27T05:07:32;10.50;99.90
36924;DHT22;22841;50.252;18.688;2023-05-27T05:09:59;10.50;99.90
36924;DHT22;22841;50.252;18.688;2023-05-27T05:12:25;10.60;99.90
36924;DHT22;22841;50.252;18.688;2023-05-27T05:14:52;10.60;99.90
36924;DHT22;22841;50.252;18.688;2023-05-27T05:17:18;10.60;99.90
36924;DHT22;22841;50.252;18.688;2023-05-27T05:19:45;10.70;99.90
36924;DHT22;22841;50.252;18.688;2023-05-27T05:22:11;10.80;99.90
36924;DHT22;22841;50.252;18.688;2023-05-27T05:24:40;10.80;99.90
36924;DHT22;22841;50.252;18.688;2023-05-27T05:27:06;10.80;99.90
36924;DHT22;22841;50.252;18.688;2023-05-27T05:29:33;10.90;99.90
36924;DHT22;22841;50.252;18.688;2023-05-27T05:31:59;11.00;99.90
36924;DHT22;22841;50.252;18.688;2023-05-27T05:34:25;11.00;99.90
36924;DHT22;22841;50.252;18.688;2023-05-27T05:36:51;11.00;99.90
36924;DHT22;22841;50.252;18.688;2023-05-27T05:39:17;11.10;99.90
36924;DHT22;22841;50.252;18.688;2023-05-27T05:41:43;11.20;99.90
36924;DHT22;22841;50.252;18.688;2023-05-27T05:44:09;11.30;99.90
36924;DHT22;22841;50.252;18.688;2023-05-27T05:46:36;11.40;99.90
36924;DHT22;22841;50.252;18.688;2023-05-27T05:49:04;11.50;99.90
36924;DHT22;22841;50.252;18.688;2023-05-27T05:51:31;11.50;99.90
36924;DHT22;22841;50.252;18.688;2023-05-27T05:53:57;11.50;99.90
36924;DHT22;22841;50.252;18.688;2023-05-27T05:56:24;11.60;99.90
36924;DHT22;22841;50.252;18.688;2023-05-27T05:58:51;11.60;99.90
36924;DHT22;22841;50.252;18.688;2023-05-27T06:01:18;11.70;99.90
36924;DHT22;22841;50.252;18.688;2023-05-27T06:03:44;11.80;99.90
36924;DHT22;22841;50.252;18.688;2023-05-27T06:06:10;11.90;99.90
36924;DHT22;22841;50.252;18.688;2023-05-27T06:08:37;11.90;99.90
36924;DHT22;22841;50.252;18.688;2023-05-27T06:11:03;12.00;99.90
36924;DHT22;22841;50.252;18.688;2023-05-27T06:13:29;12.00;99.90
36924;DHT22;22841;50.252;18.688;2023-05-27T06:15:55;12.10;99.90
36924;DHT22;22841;50.252;18.688;2023-05-27T06:18:21;12.10;99.90
36924;DHT22;22841;50.252;18.688;2023-05-27T06:20:48;12.10;99.90
36924;DHT22;22841;50.252;18.688;2023-05-27T06:23:14;12.20;99.90
36924;DHT22;22841;50.252;18.688;2023-05-27T06:25:41;12.30;99.90
36924;DHT22;22841;50.252;18.688;2023-05-27T06:28:07;12.30;99.90
36924;DHT22;22841;50.252;18.688;2023-05-27T06:30:33;12.40;99.90
36924;DHT22;22841;50.252;18.688;2023-05-27T06:32:59;12.50;99.90
36924;DHT22;22841;50.252;18.688;2023-05-27T06:35:25;12.50;99.90
36924;DHT22;22841;50.252;18.688;2023-05-27T06:37:52;12.60;99.90
36924;DHT22;22841;50.252;18.688;2023-05-27T06:40:18;12.60;99.90
36924;DHT22;22841;50.252;18.688;2023-05-27T06:42:44;12.70;99.90
36924;DHT22;22841;50.252;18.688;2023-05-27T06:45:10;12.70;99.90
36924;DHT22;22841;50.252;18.688;2023-05-27T06:47:38;12.80;99.90
36924;DHT22;22841;50.252;18.688;2023-05-27T06:50:04;12.80;99.90
36924;DHT22;22841;50.252;18.688;2023-05-27T06:52:30;13.00;99.90
36924;DHT22;22841;50.252;18.688;2023-05-27T06:54:57;13.10;99.90
36924;DHT22;22841;50.252;18.688;2023-05-27T06:57:23;13.20;99.90
36924;DHT22;22841;50.252;18.688;2023-05-27T06:59:49;13.30;99.90
36924;DHT22;22841;50.252;18.688;2023-05-27T07:02:15;13.30;99.90
36924;DHT22;22841;50.252;18.688;2023-05-27T07:04:41;13.40;99.90
36924;DHT22;22841;50.252;18.688;2023-05-27T07:07:07;13.50;99.90
36924;DHT22;22841;50.252;18.688;2023-05-27T07:09:33;13.60;99.90
36924;DHT22;22841;50.252;18.688;2023-05-27T07:12:01;13.80;99.90
36924;DHT22;22841;50.252;18.688;2023-05-27T07:14:27;14.00;99.90
36924;DHT22;22841;50.252;18.688;2023-05-27T07:16:53;14.10;99.90
36924;DHT22;22841;50.252;18.688;2023-05-27T07:19:19;14.20;99.90
36924;DHT22;22841;50.252;18.688;2023-05-27T07:21:46;14.20;99.90
36924;DHT22;22841;50.252;18.688;2023-05-27T07:24:12;14.30;99.90
36924;DHT22;22841;50.252;18.688;2023-05-27T07:26:38;14.40;99.90
36924;DHT22;22841;50.252;18.688;2023-05-27T07:29:04;14.40;99.90
36924;DHT22;22841;50.252;18.688;2023-05-27T07:31:30;14.50;99.90
36924;DHT22;22841;50.252;18.688;2023-05-27T07:33:56;14.60;99.90
36924;DHT22;22841;50.252;18.688;2023-05-27T07:36:22;14.70;99.90
36924;DHT22;22841;50.252;18.688;2023-05-27T07:38:48;14.80;99.90
36924;DHT22;22841;50.252;18.688;2023-05-27T07:41:14;14.90;99.90
36924;DHT22;22841;50.252;18.688;2023-05-27T07:43:41;15.00;99.90
36924;DHT22;22841;50.252;18.688;2023-05-27T07:46:07;15.00;99.90
36924;DHT22;22841;50.252;18.688;2023-05-27T07:48:33;15.00;99.90
36924;DHT22;22841;50.252;18.688;2023-05-27T07:50:59;15.00;99.90
36924;DHT22;22841;50.252;18.688;2023-05-27T07:53:25;15.10;99.90
36924;DHT22;22841;50.252;18.688;2023-05-27T07:55:52;15.20;99.90
36924;DHT22;22841;50.252;18.688;2023-05-27T07:58:18;15.40;99.90
36924;DHT22;22841;50.252;18.688;2023-05-27T08:00:44;15.50;99.90
36924;DHT22;22841;50.252;18.688;2023-05-27T08:03:10;15.60;99.90
36924;DHT22;22841;50.252;18.688;2023-05-27T08:05:36;15.80;99.90
36924;DHT22;22841;50.252;18.688;2023-05-27T08:08:02;15.80;99.90
36924;DHT22;22841;50.252;18.688;2023-05-27T08:10:29;15.90;99.90
36924;DHT22;22841;50.252;18.688;2023-05-27T08:12:55;15.90;99.90
36924;DHT22;22841;50.252;18.688;2023-05-27T08:15:21;15.90;99.90
36924;DHT22;22841;50.252;18.688;2023-05-27T08:17:47;16.00;99.90
36924;DHT22;22841;50.252;18.688;2023-05-27T08:20:13;16.00;99.90
36924;DHT22;22841;50.252;18.688;2023-05-27T08:22:40;16.10;99.90
36924;DHT22;22841;50.252;18.688;2023-05-27T08:25:07;16.10;99.90
36924;DHT22;22841;50.252;18.688;2023-05-27T08:27:49;16.30;99.90
36924;DHT22;22841;50.252;18.688;2023-05-27T08:30:16;16.30;99.90
36924;DHT22;22841;50.252;18.688;2023-05-27T08:32:42;16.40;99.90
36924;DHT22;22841;50.252;18.688;2023-05-27T08:35:09;16.50;99.90
36924;DHT22;22841;50.252;18.688;2023-05-27T08:37:36;16.60;99.90
36924;DHT22;22841;50.252;18.688;2023-05-27T08:40:03;16.70;99.90
36924;DHT22;22841;50.252;18.688;2023-05-27T08:42:33;16.70;99.90
36924;DHT22;22841;50.252;18.688;2023-05-27T08:45:00;16.70;99.90
36924;DHT22;22841;50.252;18.688;2023-05-27T08:47:28;16.80;99.90
36924;DHT22;22841;50.252;18.688;2023-05-27T08:49:55;16.80;99.90
36924;DHT22;22841;50.252;18.688;2023-05-27T08:52:23;16.90;99.90
36924;DHT22;22841;50.252;18.688;2023-05-27T08:54:50;16.90;99.90
36924;DHT22;22841;50.252;18.688;2023-05-27T08:57:20;17.10;99.90
36924;DHT22;22841;50.252;18.688;2023-05-27T08:59:51;17.00;99.90
36924;DHT22;22841;50.252;18.688;2023-05-27T09:02:17;17.10;99.90
36924;DHT22;22841;50.252;18.688;2023-05-27T09:04:45;17.20;99.90
36924;DHT22;22841;50.252;18.688;2023-05-27T09:07:12;17.30;99.90
36924;DHT22;22841;50.252;18.688;2023-05-27T09:09:39;17.30;99.90
36924;DHT22;22841;50.252;18.688;2023-05-27T09:12:06;17.30;99.90
36924;DHT22;22841;50.252;18.688;2023-05-27T09:14:35;17.40;99.90
36924;DHT22;22841;50.252;18.688;2023-05-27T09:17:08;17.60;99.90
36924;DHT22;22841;50.252;18.688;2023-05-27T09:19:35;17.70;99.90
36924;DHT22;22841;50.252;18.688;2023-05-27T09:22:01;17.70;99.90
36924;DHT22;22841;50.252;18.688;2023-05-27T09:24:27;17.70;99.70
36924;DHT22;22841;50.252;18.688;2023-05-27T09:26:54;17.70;99.90
36924;DHT22;22841;50.252;18.688;2023-05-27T09:29:27;17.80;99.90
36924;DHT22;22841;50.252;18.688;2023-05-27T09:31:54;17.90;99.90
36924;DHT22;22841;50.252;18.688;2023-05-27T09:34:23;17.90;96.10
36924;DHT22;22841;50.252;18.688;2023-05-27T09:36:50;17.90;97.30
36924;DHT22;22841;50.252;18.688;2023-05-27T09:39:18;17.90;99.90
36924;DHT22;22841;50.252;18.688;2023-05-27T09:41:52;17.90;99.90
36924;DHT22;22841;50.252;18.688;2023-05-27T09:44:19;17.80;99.70
36924;DHT22;22841;50.252;18.688;2023-05-27T09:46:45;17.90;99.90
36924;DHT22;22841;50.252;18.688;2023-05-27T09:49:14;17.80;99.90
36924;DHT22;22841;50.252;18.688;2023-05-27T09:51:43;18.00;99.90
36924;DHT22;22841;50.252;18.688;2023-05-27T09:54:17;18.00;99.90
36924;DHT22;22841;50.252;18.688;2023-05-27T09:56:44;18.00;99.90
36924;DHT22;22841;50.252;18.688;2023-05-27T09:59:12;18.00;99.90
36924;DHT22;22841;50.252;18.688;2023-05-27T10:01:39;18.00;99.10
36924;DHT22;22841;50.252;18.688;2023-05-27T10:04:06;18.00;99.90
36924;DHT22;22841;50.252;18.688;2023-05-27T10:06:33;18.00;95.80
36924;DHT22;22841;50.252;18.688;2023-05-27T10:09:01;18.00;99.90
36924;DHT22;22841;50.252;18.688;2023-05-27T10:11:33;18.00;99.90
36924;DHT22;22841;50.252;18.688;2023-05-27T10:14:03;17.90;93.30
36924;DHT22;22841;50.252;18.688;2023-05-27T10:16:30;17.80;99.90
36924;DHT22;22841;50.252;18.688;2023-05-27T10:18:57;17.80;99.90
36924;DHT22;22841;50.252;18.688;2023-05-27T10:21:27;17.80;98.30
36924;DHT22;22841;50.252;18.688;2023-05-27T10:26:41;17.70;95.70
36924;DHT22;22841;50.252;18.688;2023-05-27T10:31:47;17.80;99.90
36924;DHT22;22841;50.252;18.688;2023-05-27T10:34:14;17.70;90.70
36924;DHT22;22841;50.252;18.688;2023-05-27T10:36:40;17.70;82.40
36924;DHT22;22841;50.252;18.688;2023-05-27T10:39:15;17.70;96.70
36924;DHT22;22841;50.252;18.688;2023-05-27T10:44:10;17.60;96.50
36924;DHT22;22841;50.252;18.688;2023-05-27T10:46:43;17.60;98.60
36924;DHT22;22841;50.252;18.688;2023-05-27T10:49:11;17.70;98.40
36924;DHT22;22841;50.252;18.688;2023-05-27T10:51:38;17.80;99.90
36924;DHT22;22841;50.252;18.688;2023-05-27T10:54:06;17.80;95.70
36924;DHT22;22841;50.252;18.688;2023-05-27T10:56:32;17.70;99.90
36924;DHT22;22841;50.252;18.688;2023-05-27T10:59:00;17.80;96.30
36924;DHT22;22841;50.252;18.688;2023-05-27T11:01:29;17.80;97.80
36924;DHT22;22841;50.252;18.688;2023-05-27T11:03:57;17.80;98.50
36924;DHT22;22841;50.252;18.688;2023-05-27T11:06:23;17.80;92.80
36924;DHT22;22841;50.252;18.688;2023-05-27T11:08:50;17.80;93.70
36924;DHT22;22841;50.252;18.688;2023-05-27T11:11:16;17.90;73.80
36924;DHT22;22841;50.252;18.688;2023-05-27T11:13:44;17.90;95.10
36924;DHT22;22841;50.252;18.688;2023-05-27T11:16:11;18.00;89.90
36924;DHT22;22841;50.252;18.688;2023-05-27T11:18:41;18.20;76.90
36924;DHT22;22841;50.252;18.688;2023-05-27T11:21:10;18.20;65.80
36924;DHT22;22841;50.252;18.688;2023-05-27T11:23:44;18.00;90.80
36924;DHT22;22841;50.252;18.688;2023-05-27T11:28:51;18.10;79.20
36924;DHT22;22841;50.252;18.688;2023-05-27T11:31:20;18.20;75.30
36924;DHT22;22841;50.252;18.688;2023-05-27T11:33:50;18.30;91.50
36924;DHT22;22841;50.252;18.688;2023-05-27T11:36:16;18.30;91.30
36924;DHT22;22841;50.252;18.688;2023-05-27T11:41:13;18.50;88.60
36924;DHT22;22841;50.252;18.688;2023-05-27T11:43:55;18.60;82.40
36924;DHT22;22841;50.252;18.688;2023-05-27T11:46:23;18.70;61.50
36924;DHT22;22841;50.252;18.688;2023-05-27T11:48:49;18.70;62.80
36924;DHT22;22841;50.252;18.688;2023-05-27T11:51:17;18.90;67.90
36924;DHT22;22841;50.252;18.688;2023-05-27T11:53:46;19.20;60.70
36924;DHT22;22841;50.252;18.688;2023-05-27T11:56:13;19.50;61.80
36924;DHT22;22841;50.252;18.688;2023-05-27T11:58:40;19.70;64.30
36924;DHT22;22841;50.252;18.688;2023-05-27T12:01:06;20.10;62.00
36924;DHT22;22841;50.252;18.688;2023-05-27T12:03:35;20.50;60.50
36924;DHT22;22841;50.252;18.688;2023-05-27T12:06:02;20.70;57.90
36924;DHT22;22841;50.252;18.688;2023-05-27T12:08:29;20.70;52.30
36924;DHT22;22841;50.252;18.688;2023-05-27T12:10:55;20.50;51.00
36924;DHT22;22841;50.252;18.688;2023-05-27T12:13:21;20.30;51.50
36924;DHT22;22841;50.252;18.688;2023-05-27T12:15:48;20.00;48.70
36924;DHT22;22841;50.252;18.688;2023-05-27T12:18:14;19.70;50.00
36924;DHT22;22841;50.252;18.688;2023-05-27T12:20:43;19.70;54.70
36924;DHT22;22841;50.252;18.688;2023-05-27T12:23:09;19.70;59.00
36924;DHT22;22841;50.252;18.688;2023-05-27T12:25:35;19.80;55.60
36924;DHT22;22841;50.252;18.688;2023-05-27T12:28:02;20.10;56.50
36924;DHT22;22841;50.252;18.688;2023-05-27T12:30:28;20.70;49.30
36924;DHT22;22841;50.252;18.688;2023-05-27T12:32:55;21.40;49.80
36924;DHT22;22841;50.252;18.688;2023-05-27T12:35:21;21.90;51.30
36924;DHT22;22841;50.252;18.688;2023-05-27T12:37:48;22.70;47.10
36924;DHT22;22841;50.252;18.688;2023-05-27T12:40:14;22.80;40.80
36924;DHT22;22841;50.252;18.688;2023-05-27T12:42:43;23.40;41.50
36924;DHT22;22841;50.252;18.688;2023-05-27T12:45:10;23.40;40.90
36924;DHT22;22841;50.252;18.688;2023-05-27T12:47:37;23.60;41.70
36924;DHT22;22841;50.252;18.688;2023-05-27T12:50:03;24.10;40.30
36924;DHT22;22841;50.252;18.688;2023-05-27T12:52:30;24.20;41.30
36924;DHT22;22841;50.252;18.688;2023-05-27T12:54:56;24.60;40.40
36924;DHT22;22841;50.252;18.688;2023-05-27T12:57:22;24.70;39.90
36924;DHT22;22841;50.252;18.688;2023-05-27T12:59:49;24.80;40.70
36924;DHT22;22841;50.252;18.688;2023-05-27T13:02:15;24.40;39.60
36924;DHT22;22841;50.252;18.688;2023-05-27T13:04:41;24.00;40.70
36924;DHT22;22841;50.252;18.688;2023-05-27T13:07:10;23.40;40.70
36924;DHT22;22841;50.252;18.688;2023-05-27T13:09:40;22.70;42.00
36924;DHT22;22841;50.252;18.688;2023-05-27T13:12:06;22.30;42.30
36924;DHT22;22841;50.252;18.688;2023-05-27T13:14:32;21.80;42.00
36924;DHT22;22841;50.252;18.688;2023-05-27T13:16:58;21.60;45.20
36924;DHT22;22841;50.252;18.688;2023-05-27T13:19:25;21.40;43.20
36924;DHT22;22841;50.252;18.688;2023-05-27T13:21:51;21.10;45.80
36924;DHT22;22841;50.252;18.688;2023-05-27T13:24:17;21.00;48.20
36924;DHT22;22841;50.252;18.688;2023-05-27T13:26:43;21.00;45.30
36924;DHT22;22841;50.252;18.688;2023-05-27T13:29:09;20.80;47.50
36924;DHT22;22841;50.252;18.688;2023-05-27T13:31:36;20.60;45.70
36924;DHT22;22841;50.252;18.688;2023-05-27T13:34:02;20.40;46.30
36924;DHT22;22841;50.252;18.688;2023-05-27T13:36:28;20.30;48.20
36924;DHT22;22841;50.252;18.688;2023-05-27T13:38:54;20.30;49.00
36924;DHT22;22841;50.252;18.688;2023-05-27T13:41:20;20.30;50.30
36924;DHT22;22841;50.252;18.688;2023-05-27T13:43:46;20.20;48.60
36924;DHT22;22841;50.252;18.688;2023-05-27T13:46:12;20.10;50.00
36924;DHT22;22841;50.252;18.688;2023-05-27T13:48:38;20.10;50.30
36924;DHT22;22841;50.252;18.688;2023-05-27T13:51:05;20.10;49.00
36924;DHT22;22841;50.252;18.688;2023-05-27T13:53:31;20.10;49.90
36924;DHT22;22841;50.252;18.688;2023-05-27T13:55:58;20.10;50.20
36924;DHT22;22841;50.252;18.688;2023-05-27T13:58:24;20.00;49.50
36924;DHT22;22841;50.252;18.688;2023-05-27T14:00:50;19.90;49.40
36924;DHT22;22841;50.252;18.688;2023-05-27T14:03:16;19.80;49.70
36924;DHT22;22841;50.252;18.688;2023-05-27T14:05:42;19.80;50.40
36924;DHT22;22841;50.252;18.688;2023-05-27T14:08:09;19.80;52.00
36924;DHT22;22841;50.252;18.688;2023-05-27T14:10:35;19.90;52.50
36924;DHT22;22841;50.252;18.688;2023-05-27T14:13:01;19.90;50.10
36924;DHT22;22841;50.252;18.688;2023-05-27T14:15:28;19.80;51.00
36924;DHT22;22841;50.252;18.688;2023-05-27T14:17:56;19.80;48.90
36924;DHT22;22841;50.252;18.688;2023-05-27T14:20:22;19.80;48.60
36924;DHT22;22841;50.252;18.688;2023-05-27T14:22:48;19.80;47.80
36924;DHT22;22841;50.252;18.688;2023-05-27T14:25:15;19.70;47.90
36924;DHT22;22841;50.252;18.688;2023-05-27T14:27:41;19.80;48.80
36924;DHT22;22841;50.252;18.688;2023-05-27T14:30:07;19.80;52.00
36924;DHT22;22841;50.252;18.688;2023-05-27T14:32:33;19.80;49.70
36924;DHT22;22841;50.252;18.688;2023-05-27T14:35:00;19.80;52.40
36924;DHT22;22841;50.252;18.688;2023-05-27T14:37:26;19.80;50.40
36924;DHT22;22841;50.252;18.688;2023-05-27T14:39:52;19.70;50.70
36924;DHT22;22841;50.252;18.688;2023-05-27T14:42:19;19.80;53.60
36924;DHT22;22841;50.252;18.688;2023-05-27T14:44:46;19.80;51.00
36924;DHT22;22841;50.252;18.688;2023-05-27T14:47:12;19.70;53.40
36924;DHT22;22841;50.252;18.688;2023-05-27T14:49:38;19.80;53.30
36924;DHT22;22841;50.252;18.688;2023-05-27T14:52:04;19.80;52.20
36924;DHT22;22841;50.252;18.688;2023-05-27T14:54:30;19.80;54.20
36924;DHT22;22841;50.252;18.688;2023-05-27T14:56:56;19.80;53.60
36924;DHT22;22841;50.252;18.688;2023-05-27T14:59:22;19.90;51.50
36924;DHT22;22841;50.252;18.688;2023-05-27T15:01:49;19.90;52.10
36924;DHT22;22841;50.252;18.688;2023-05-27T15:04:15;19.90;51.00
36924;DHT22;22841;50.252;18.688;2023-05-27T15:06:41;19.90;53.50
36924;DHT22;22841;50.252;18.688;2023-05-27T15:09:07;19.90;55.10
36924;DHT22;22841;50.252;18.688;2023-05-27T15:11:35;20.00;55.70
36924;DHT22;22841;50.252;18.688;2023-05-27T15:14:02;19.90;52.00
36924;DHT22;22841;50.252;18.688;2023-05-27T15:16:28;19.70;51.60
36924;DHT22;22841;50.252;18.688;2023-05-27T15:18:55;19.60;51.30
36924;DHT22;22841;50.252;18.688;2023-05-27T15:21:21;19.60;55.70
36924;DHT22;22841;50.252;18.688;2023-05-27T15:23:47;19.60;54.50
36924;DHT22;22841;50.252;18.688;2023-05-27T15:26:13;19.50;51.30
36924;DHT22;22841;50.252;18.688;2023-05-27T15:28:39;19.40;52.60